createdAt,value
2024-04-18T00:00:07.912Z,83
2024-04-18T00:01:14.550Z,83
2024-04-18T00:02:21.668Z,83
2024-04-18T00:03:28.778Z,83
2024-04-18T00:04:35.890Z,83
2024-04-18T00:05:42.884Z,83
2024-04-18T00:06:49.630Z,83
2024-04-18T00:07:56.590Z,83
2024-04-18T00:09:03.667Z,83
2024-04-18T00:10:10.782Z,83
2024-04-18T00:11:18.038Z,83
2024-04-18T00:12:24.624Z,83
2024-04-18T00:13:31.593Z,83
2024-04-18T00:14:38.727Z,83
2024-04-18T00:15:45.831Z,83
2024-04-18T00:16:52.327Z,83
2024-04-18T00:17:59.585Z,83
2024-04-18T00:19:07.055Z,83
2024-04-18T00:20:13.666Z,83
2024-04-18T00:21:20.860Z,83
2024-04-18T00:22:27.409Z,83
2024-04-18T00:23:34.477Z,83
2024-04-18T00:24:41.558Z,83
2024-04-18T00:25:48.719Z,84
2024-04-18T00:26:56.137Z,84
2024-04-18T00:28:02.480Z,84
2024-04-18T00:29:09.562Z,84
2024-04-18T00:31:23.667Z,84
2024-04-18T00:32:30.893Z,84
2024-04-18T00:33:37.433Z,84
2024-04-18T00:34:44.523Z,84
2024-04-18T00:35:51.650Z,84
2024-04-18T00:36:58.779Z,84
2024-04-18T00:38:05.799Z,84
2024-04-18T00:39:12.482Z,84
2024-04-18T00:40:19.582Z,84
2024-04-18T00:41:26.644Z,84
2024-04-18T00:42:33.800Z,84
2024-04-18T00:43:40.820Z,84
2024-04-18T00:44:47.423Z,84
2024-04-18T00:45:54.582Z,84
2024-04-18T00:47:01.583Z,83
2024-04-18T00:48:08.748Z,84
2024-04-18T00:49:15.960Z,84
2024-04-18T00:50:22.438Z,84
2024-04-18T00:51:29.622Z,84
2024-04-18T00:52:36.717Z,84
2024-04-18T00:53:43.733Z,84
2024-04-18T00:54:50.874Z,84
2024-04-18T00:55:57.471Z,84
2024-04-18T00:57:04.570Z,84
2024-04-18T00:58:11.737Z,84
2024-04-18T00:59:18.741Z,84
2024-04-18T01:00:25.901Z,84
2024-04-18T01:01:32.435Z,84
2024-04-18T01:02:39.605Z,84
2024-04-18T01:03:46.715Z,84
2024-04-18T01:06:00.854Z,84
2024-04-18T01:07:07.424Z,84
2024-04-18T01:08:14.609Z,84
2024-04-18T01:09:21.694Z,84
2024-04-18T01:10:28.769Z,84
2024-04-18T01:11:35.964Z,84
2024-04-18T01:12:42.457Z,84
2024-04-18T01:13:49.598Z,84
2024-04-18T01:14:56.681Z,84
2024-04-18T01:16:03.729Z,84
2024-04-18T01:17:10.975Z,84
2024-04-18T01:18:17.578Z,84
2024-04-18T01:19:24.622Z,84
2024-04-18T01:20:31.631Z,84
2024-04-18T01:21:38.872Z,84
2024-04-18T01:22:45.987Z,84
2024-04-18T01:23:52.541Z,84
2024-04-18T01:24:59.606Z,83
2024-04-18T01:26:06.676Z,83
2024-04-18T01:27:13.781Z,83
2024-04-18T01:28:20.953Z,83
2024-04-18T01:29:27.513Z,83
2024-04-18T01:30:34.650Z,83
2024-04-18T01:31:41.702Z,83
2024-04-18T01:32:48.874Z,84
2024-04-18T01:35:02.582Z,84
2024-04-18T01:36:09.617Z,84
2024-04-18T01:37:16.710Z,84
2024-04-18T01:38:23.762Z,84
2024-04-18T01:39:30.910Z,84
2024-04-18T01:40:37.608Z,84
2024-04-18T01:41:45.718Z,84
2024-04-18T01:42:51.690Z,84
2024-04-18T01:43:58.988Z,84
2024-04-18T01:45:05.947Z,84
2024-04-18T01:46:12.479Z,84
2024-04-18T01:47:19.611Z,84
2024-04-18T01:48:26.995Z,84
2024-04-18T01:49:33.785Z,84
2024-04-18T01:50:40.908Z,84
2024-04-18T01:51:47.593Z,84
2024-04-18T01:52:54.633Z,84
2024-04-18T01:54:01.671Z,84
2024-04-18T01:55:08.859Z,84
2024-04-18T01:56:15.921Z,84
2024-04-18T01:57:22.556Z,84
2024-04-18T01:58:29.691Z,84
2024-04-18T01:59:36.773Z,84
2024-04-18T02:00:43.911Z,84
2024-04-18T02:01:50.934Z,84
2024-04-18T02:02:57.578Z,84
2024-04-18T02:04:04.834Z,84
2024-04-18T02:05:11.740Z,84
2024-04-18T02:06:18.968Z,84
2024-04-18T02:07:25.962Z,84
2024-04-18T02:08:32.494Z,84
2024-04-18T02:09:39.680Z,84
2024-04-18T02:10:46.843Z,84
2024-04-18T02:11:53.859Z,84
2024-04-18T02:13:01.043Z,84
2024-04-18T02:14:07.544Z,84
2024-04-18T02:15:14.683Z,84
2024-04-18T02:16:21.699Z,84
2024-04-18T02:17:28.874Z,84
2024-04-18T02:18:36.049Z,84
2024-04-18T02:19:42.496Z,83
2024-04-18T02:20:49.699Z,83
2024-04-18T02:21:56.717Z,83
2024-04-18T02:23:03.876Z,83
2024-04-18T02:24:11.008Z,83
2024-04-18T02:25:17.648Z,83
2024-04-18T02:26:24.660Z,83
2024-04-18T02:27:31.755Z,83
2024-04-18T02:28:38.899Z,83
2024-04-18T02:29:46.764Z,83
2024-04-18T02:30:52.622Z,83
2024-04-18T02:31:59.673Z,83
2024-04-18T02:34:13.847Z,83
2024-04-18T02:35:20.948Z,83
2024-04-18T02:36:27.623Z,83
2024-04-18T02:38:41.832Z,83
2024-04-18T02:39:49.083Z,83
2024-04-18T02:40:55.583Z,83
2024-04-18T02:42:02.593Z,83
2024-04-18T02:43:09.717Z,82
2024-04-18T02:44:16.911Z,82
2024-04-18T02:45:23.851Z,82
2024-04-18T02:46:30.484Z,82
2024-04-18T02:47:37.717Z,82
2024-04-18T02:48:44.769Z,82
2024-04-18T02:49:51.755Z,82
2024-04-18T02:50:58.958Z,82
2024-04-18T02:52:05.493Z,82
2024-04-18T02:53:12.596Z,82
2024-04-18T02:54:19.750Z,82
2024-04-18T02:55:26.833Z,82
2024-04-18T02:56:33.923Z,83
2024-04-18T02:57:40.499Z,83
2024-04-18T02:58:47.604Z,83
2024-04-18T02:59:54.726Z,83
2024-04-18T03:01:01.923Z,83
2024-04-18T03:02:08.911Z,83
2024-04-18T03:03:15.549Z,83
2024-04-18T03:04:22.680Z,83
2024-04-18T03:05:29.728Z,83
2024-04-18T03:06:36.830Z,83
2024-04-18T03:07:43.878Z,83
2024-04-18T03:08:50.479Z,83
2024-04-18T03:09:58.199Z,83
2024-04-18T03:11:04.784Z,83
2024-04-18T03:12:11.866Z,83
2024-04-18T03:13:18.959Z,83
2024-04-18T03:14:25.565Z,83
2024-04-18T03:15:32.724Z,83
2024-04-18T03:16:39.770Z,83
2024-04-18T03:17:48.918Z,83
2024-04-18T03:18:54.076Z,83
2024-04-18T03:20:00.553Z,83
2024-04-18T03:21:07.726Z,83
2024-04-18T03:22:14.736Z,83
2024-04-18T03:23:21.840Z,83
2024-04-18T03:24:29.039Z,83
2024-04-18T03:25:35.518Z,83
2024-04-18T03:26:42.661Z,83
2024-04-18T03:27:49.836Z,83
2024-04-18T03:28:56.918Z,83
2024-04-18T03:30:03.923Z,83
2024-04-18T03:31:10.602Z,83
2024-04-18T03:32:17.847Z,83
2024-04-18T03:33:24.778Z,83
2024-04-18T03:34:31.866Z,83
2024-04-18T03:35:38.975Z,83
2024-04-18T03:36:45.581Z,83
2024-04-18T03:37:52.643Z,83
2024-04-18T03:38:59.777Z,83
2024-04-18T03:40:06.841Z,83
2024-04-18T03:42:20.604Z,83
2024-04-18T03:43:27.701Z,83
2024-04-18T03:44:34.751Z,83
2024-04-18T03:45:41.919Z,83
2024-04-18T03:46:49.002Z,83
2024-04-18T03:47:55.686Z,83
2024-04-18T03:49:02.847Z,83
2024-04-18T03:50:09.830Z,83
2024-04-18T03:51:17.015Z,83
2024-04-18T03:52:23.957Z,83
2024-04-18T03:53:30.525Z,83
2024-04-18T03:54:55.212Z,83
2024-04-18T03:55:44.882Z,83
2024-04-18T03:56:51.890Z,83
2024-04-18T03:57:58.978Z,83
2024-04-18T03:59:05.564Z,83
2024-04-18T04:00:12.641Z,83
2024-04-18T04:02:26.970Z,83
2024-04-18T04:03:34.060Z,83
2024-04-18T04:04:40.540Z,83
2024-04-18T04:05:47.695Z,84
2024-04-18T04:06:54.905Z,84
2024-04-18T04:08:01.896Z,84
2024-04-18T04:09:08.986Z,84
2024-04-18T04:10:15.575Z,84
2024-04-18T04:11:23.198Z,84
2024-04-18T04:12:29.863Z,84
2024-04-18T04:13:36.945Z,84
2024-04-18T04:14:44.080Z,84
2024-04-18T04:15:50.943Z,84
2024-04-18T04:16:57.749Z,84
2024-04-18T04:18:04.922Z,84
2024-04-18T04:19:12.057Z,84
2024-04-18T04:20:18.625Z,84
2024-04-18T04:21:25.744Z,84
2024-04-18T04:22:33.651Z,84
2024-04-18T04:23:39.820Z,84
2024-04-18T04:24:47.003Z,84
2024-04-18T04:25:54.003Z,84
2024-04-18T04:27:00.625Z,84
2024-04-18T04:28:07.750Z,84
2024-04-18T04:29:14.865Z,85
2024-04-18T04:30:21.990Z,85
2024-04-18T04:31:29.049Z,85
2024-04-18T04:32:35.717Z,85
2024-04-18T04:33:42.783Z,85
2024-04-18T04:34:49.861Z,85
2024-04-18T04:35:57.019Z,85
2024-04-18T04:37:04.108Z,85
2024-04-18T04:38:11.194Z,85
2024-04-18T04:39:17.769Z,85
2024-04-18T04:40:24.818Z,85
2024-04-18T04:41:31.932Z,85
2024-04-18T04:42:38.589Z,85
2024-04-18T04:43:45.683Z,85
2024-04-18T04:45:59.835Z,86
2024-04-18T04:47:07.013Z,86
2024-04-18T04:48:13.640Z,86
2024-04-18T04:49:20.925Z,86
2024-04-18T04:50:27.803Z,86
2024-04-18T04:51:34.884Z,86
2024-04-18T04:52:41.995Z,86
2024-04-18T04:53:50.602Z,86
2024-04-18T04:54:55.659Z,86
2024-04-18T04:56:02.788Z,86
2024-04-18T04:57:09.892Z,86
2024-04-18T04:58:17.007Z,86
2024-04-18T04:59:23.509Z,86
2024-04-18T05:00:30.699Z,86
2024-04-18T05:01:37.846Z,86
2024-04-18T05:02:47.281Z,86
2024-04-18T05:03:52.099Z,86
2024-04-18T05:04:58.592Z,86
2024-04-18T05:06:05.659Z,86
2024-04-18T05:07:12.793Z,87
2024-04-18T05:08:19.879Z,87
2024-04-18T05:09:27.106Z,87
2024-04-18T05:10:33.538Z,87
2024-04-18T05:11:40.673Z,87
2024-04-18T05:12:47.937Z,87
2024-04-18T05:13:54.919Z,87
2024-04-18T05:15:01.956Z,87
2024-04-18T05:16:08.725Z,87
2024-04-18T05:17:15.733Z,87
2024-04-18T05:18:22.805Z,87
2024-04-18T05:19:29.965Z,87
2024-04-18T05:20:37.023Z,87
2024-04-18T05:21:43.616Z,87
2024-04-18T05:22:50.792Z,87
2024-04-18T05:23:57.778Z,87
2024-04-18T05:25:04.910Z,87
2024-04-18T05:26:11.997Z,87
2024-04-18T05:27:18.641Z,87
2024-04-18T05:28:25.725Z,88
2024-04-18T05:30:39.957Z,88
2024-04-18T05:31:47.009Z,88
2024-04-18T05:32:53.656Z,88
2024-04-18T05:34:00.804Z,88
2024-04-18T05:35:07.832Z,88
2024-04-18T05:36:14.932Z,88
2024-04-18T05:37:23.238Z,88
2024-04-18T05:38:28.625Z,88
2024-04-18T05:39:35.779Z,88
2024-04-18T05:40:42.864Z,88
2024-04-18T05:41:49.924Z,88
2024-04-18T05:42:57.132Z,88
2024-04-18T05:44:03.625Z,88
2024-04-18T05:45:10.768Z,88
2024-04-18T05:46:17.864Z,88
2024-04-18T05:47:25.112Z,89
2024-04-18T05:49:38.643Z,89
2024-04-18T05:50:45.799Z,89
2024-04-18T05:51:52.873Z,89
2024-04-18T05:52:59.983Z,89
2024-04-18T05:54:07.084Z,89
2024-04-18T05:55:13.600Z,89
2024-04-18T05:56:20.798Z,89
2024-04-18T05:57:27.883Z,89
2024-04-18T05:58:34.930Z,89
2024-04-18T05:59:42.046Z,89
2024-04-18T06:00:48.793Z,89
2024-04-18T06:01:55.803Z,89
2024-04-18T06:03:03.032Z,89
2024-04-18T06:04:10.066Z,89
2024-04-18T06:05:17.124Z,89
2024-04-18T06:06:24.173Z,89
2024-04-18T06:07:31.301Z,89
2024-04-18T06:08:37.917Z,89
2024-04-18T06:09:46.723Z,90
2024-04-18T06:10:52.078Z,90
2024-04-18T06:11:58.744Z,90
2024-04-18T06:13:05.822Z,90
2024-04-18T06:14:12.836Z,90
2024-04-18T06:15:20.091Z,90
2024-04-18T06:16:27.200Z,90
2024-04-18T06:17:33.676Z,90
2024-04-18T06:18:40.801Z,90
2024-04-18T06:19:47.882Z,90
2024-04-18T06:20:55.015Z,91
2024-04-18T06:22:01.589Z,91
2024-04-18T06:23:08.669Z,91
2024-04-18T06:24:15.766Z,91
2024-04-18T06:25:22.889Z,91
2024-04-18T06:26:30.028Z,91
2024-04-18T06:27:36.793Z,91
2024-04-18T06:28:43.745Z,92
2024-04-18T06:29:50.779Z,92
2024-04-18T06:30:58.065Z,92
2024-04-18T06:32:04.965Z,92
2024-04-18T06:33:11.785Z,92
2024-04-18T06:34:18.806Z,92
2024-04-18T06:35:25.829Z,92
2024-04-18T06:36:33.005Z,92
2024-04-18T06:37:40.031Z,92
2024-04-18T06:38:46.582Z,92
2024-04-18T06:39:53.844Z,92
2024-04-18T06:41:00.873Z,92
2024-04-18T06:42:07.942Z,93
2024-04-18T06:43:15.101Z,93
2024-04-18T06:44:21.570Z,93
2024-04-18T06:45:28.771Z,93
2024-04-18T06:46:45.255Z,93
2024-04-18T06:47:43.035Z,93
2024-04-18T06:48:50.181Z,93
2024-04-18T06:49:56.633Z,93
2024-04-18T06:51:03.710Z,93
2024-04-18T06:53:17.981Z,94
2024-04-18T06:54:25.110Z,94
2024-04-18T06:55:31.639Z,94
2024-04-18T06:56:38.798Z,95
2024-04-18T06:58:53.034Z,96
2024-04-18T07:00:00.060Z,96
2024-04-18T07:01:06.814Z,96
2024-04-18T07:02:13.699Z,96
2024-04-18T07:03:20.870Z,95
2024-04-18T07:04:28.024Z,96
2024-04-18T07:05:35.012Z,96
2024-04-18T07:06:41.693Z,96
2024-04-18T07:07:48.799Z,96
2024-04-18T07:08:55.906Z,97
2024-04-18T07:10:03.115Z,97
2024-04-18T07:11:10.575Z,96
2024-04-18T07:12:16.702Z,97
2024-04-18T07:13:23.777Z,97
2024-04-18T07:14:30.971Z,97
2024-04-18T07:15:38.040Z,97
2024-04-18T07:16:45.033Z,96
2024-04-18T07:17:51.811Z,97
2024-04-18T07:18:59.025Z,97
2024-04-18T07:20:05.866Z,97
2024-04-18T07:21:12.912Z,98
2024-04-18T07:22:20.072Z,97
2024-04-18T07:23:26.731Z,98
2024-04-18T07:24:33.832Z,98
2024-04-18T07:25:40.837Z,98
2024-04-18T07:26:48.032Z,98
2024-04-18T07:27:55.198Z,98
2024-04-18T07:29:01.644Z,98
2024-04-18T07:30:08.821Z,98
2024-04-18T07:31:15.909Z,98
2024-04-18T07:32:23.055Z,98
2024-04-18T07:33:30.149Z,98
2024-04-18T07:34:37.292Z,98
2024-04-18T07:35:43.783Z,98
2024-04-18T07:36:50.968Z,98
2024-04-18T07:37:58.016Z,98
2024-04-18T07:39:04.574Z,98
2024-04-18T07:40:11.765Z,98
2024-04-18T07:41:18.801Z,98
2024-04-18T07:42:25.952Z,98
2024-04-18T07:43:33.122Z,99
2024-04-18T07:44:39.571Z,98
2024-04-18T07:45:46.852Z,98
2024-04-18T07:46:53.769Z,98
2024-04-18T07:48:01.161Z,98
2024-04-18T07:49:08.047Z,98
2024-04-18T07:50:14.560Z,98
2024-04-18T07:51:21.696Z,99
2024-04-18T07:52:28.870Z,98
2024-04-18T07:53:35.901Z,99
2024-04-18T07:54:42.998Z,99
2024-04-18T07:55:49.657Z,99
2024-04-18T07:56:57.139Z,99
2024-04-18T07:58:04.588Z,99
2024-04-18T07:59:11.705Z,99
2024-04-18T08:00:18.509Z,99
2024-04-18T08:01:25.955Z,99
2024-04-18T08:02:33.335Z,99
2024-04-18T08:03:40.299Z,99
2024-04-18T08:04:55.149Z,99
2024-04-18T08:05:55.168Z,99
2024-04-18T08:07:02.074Z,99
2024-04-18T08:08:08.882Z,99
2024-04-18T08:09:17.267Z,99
2024-04-18T08:10:23.933Z,99
2024-04-18T08:12:37.847Z,99
2024-04-18T08:13:45.296Z,99
2024-04-18T08:14:53.356Z,99
2024-04-18T08:17:03.184Z,99
2024-04-18T08:18:09.711Z,99
2024-04-18T08:19:16.845Z,99
2024-04-18T08:20:23.930Z,99
2024-04-18T08:21:30.995Z,99
2024-04-18T08:22:38.119Z,99
2024-04-18T08:23:44.622Z,99
2024-04-18T08:24:51.707Z,99
2024-04-18T08:27:06.023Z,99
2024-04-18T08:28:13.067Z,99
2024-04-18T08:29:19.656Z,99
2024-04-18T08:30:26.813Z,99
2024-04-18T08:31:33.899Z,99
2024-04-18T08:32:41.084Z,99
2024-04-18T08:33:57.780Z,99
2024-04-18T08:34:54.643Z,99
2024-04-18T08:36:01.761Z,99
2024-04-18T08:37:08.902Z,99
2024-04-18T08:38:16.056Z,99
2024-04-18T08:39:23.096Z,99
2024-04-18T08:40:29.701Z,99
2024-04-18T08:41:40.168Z,99
2024-04-18T08:42:43.885Z,99
2024-04-18T08:43:52.481Z,99
2024-04-18T08:44:58.064Z,99
2024-04-18T08:46:04.710Z,99
2024-04-18T08:47:11.790Z,99
2024-04-18T08:48:19.175Z,99
2024-04-18T08:49:26.161Z,99
2024-04-18T08:50:33.070Z,99
2024-04-18T08:51:39.696Z,99
2024-04-18T08:52:46.773Z,99
2024-04-18T08:53:53.865Z,99
2024-04-18T08:55:00.967Z,99
2024-04-18T08:56:08.095Z,99
2024-04-18T08:57:14.689Z,99
2024-04-18T08:58:21.738Z,99
2024-04-18T09:00:36.057Z,99
2024-04-18T09:01:43.083Z,99
2024-04-18T09:02:50.284Z,99
2024-04-18T09:03:56.813Z,99
2024-04-18T09:05:03.882Z,99
2024-04-18T09:06:11.129Z,99
2024-04-18T09:07:18.126Z,99
2024-04-18T09:08:24.686Z,99
2024-04-18T09:09:31.928Z,99
2024-04-18T09:10:38.924Z,99
2024-04-18T09:11:46.035Z,99
2024-04-18T09:12:53.091Z,99
2024-04-18T09:13:59.723Z,99
2024-04-18T09:15:06.818Z,99
2024-04-18T09:16:13.963Z,99
2024-04-18T09:17:21.063Z,99
2024-04-18T09:18:28.553Z,99
2024-04-18T09:19:34.735Z,99
2024-04-18T09:20:41.808Z,99
2024-04-18T09:21:48.904Z,99
2024-04-18T09:22:56.054Z,99
2024-04-18T09:24:03.178Z,99
2024-04-18T09:25:09.741Z,99
2024-04-18T09:26:16.839Z,99
2024-04-18T09:27:23.967Z,99
2024-04-18T09:28:30.999Z,99
2024-04-18T09:29:38.311Z,99
2024-04-18T09:30:44.767Z,99
2024-04-18T09:31:51.826Z,99
2024-04-18T09:32:59.964Z,99
2024-04-18T09:34:06.171Z,99
2024-04-18T09:35:12.578Z,99
2024-04-18T09:36:19.881Z,99
2024-04-18T09:37:26.944Z,99
2024-04-18T09:38:33.972Z,99
2024-04-18T09:39:41.105Z,99
2024-04-18T09:40:47.641Z,99
2024-04-18T09:41:54.781Z,99
2024-04-18T09:43:01.829Z,99
2024-04-18T09:44:08.955Z,99
2024-04-18T09:45:16.235Z,99
2024-04-18T09:46:22.657Z,99
2024-04-18T09:47:29.909Z,99
2024-04-18T09:48:36.971Z,99
2024-04-18T09:49:46.659Z,99
2024-04-18T09:50:51.118Z,99
2024-04-18T09:51:57.695Z,99
2024-04-18T09:53:04.808Z,99
2024-04-18T09:55:20.222Z,99
2024-04-18T09:56:26.119Z,99
2024-04-18T09:57:32.759Z,99
2024-04-18T09:58:39.809Z,99
2024-04-18T09:59:46.882Z,99
2024-04-18T10:00:54.011Z,99
2024-04-18T10:02:01.130Z,99
2024-04-18T10:04:15.023Z,99
2024-04-18T10:05:21.886Z,99
2024-04-18T10:06:28.991Z,99
2024-04-18T10:07:36.103Z,99
2024-04-18T10:08:42.662Z,99
2024-04-18T10:09:49.784Z,99
2024-04-18T10:10:56.952Z,99
2024-04-18T10:12:03.982Z,99
2024-04-18T10:13:11.081Z,99
2024-04-18T10:14:17.719Z,99
2024-04-18T10:15:24.809Z,99
2024-04-18T10:16:31.840Z,99
2024-04-18T10:17:39.239Z,99
2024-04-18T10:18:46.982Z,99
2024-04-18T10:19:52.644Z,99
2024-04-18T10:20:59.841Z,99
2024-04-18T10:22:17.601Z,99
2024-04-18T10:23:14.055Z,99
2024-04-18T10:24:21.112Z,99
2024-04-18T10:25:27.724Z,99
2024-04-18T10:26:34.801Z,99
2024-04-18T10:27:41.971Z,99
2024-04-18T10:28:49.001Z,99
2024-04-18T10:29:56.184Z,99
2024-04-18T10:31:03.243Z,99
2024-04-18T10:32:09.778Z,99
2024-04-18T10:33:17.039Z,99
2024-04-18T10:34:24.002Z,99
2024-04-18T10:35:31.084Z,99
2024-04-18T10:36:39.298Z,99
2024-04-18T10:37:44.826Z,99
2024-04-18T10:38:51.962Z,99
2024-04-18T10:39:59.152Z,99
2024-04-18T10:41:06.144Z,99
2024-04-18T10:42:12.725Z,99
2024-04-18T10:43:20.797Z,99
2024-04-18T10:44:26.948Z,99
2024-04-18T10:45:34.052Z,99
2024-04-18T10:46:41.180Z,99
2024-04-18T10:47:47.857Z,99
2024-04-18T10:48:55.036Z,99
2024-04-18T10:50:01.928Z,99
2024-04-18T10:51:09.124Z,99
2024-04-18T10:52:16.140Z,99
2024-04-18T10:53:22.795Z,99
2024-04-18T10:54:29.948Z,99
2024-04-18T10:55:36.953Z,99
2024-04-18T10:56:44.072Z,99
2024-04-18T10:57:50.651Z,99
2024-04-18T10:58:57.773Z,99
2024-04-18T11:00:04.904Z,99
2024-04-18T11:01:11.980Z,99
2024-04-18T11:02:19.188Z,99
2024-04-18T11:03:25.807Z,99
2024-04-18T11:04:32.808Z,99
2024-04-18T11:05:39.912Z,99
2024-04-18T11:07:54.172Z,99
2024-04-18T11:09:00.757Z,99
2024-04-18T11:10:07.765Z,99
2024-04-18T11:11:14.910Z,99
2024-04-18T11:12:21.974Z,99
2024-04-18T11:13:29.169Z,99
2024-04-18T11:14:35.702Z,99
2024-04-18T11:15:42.857Z,99
2024-04-18T11:16:49.922Z,99
2024-04-18T11:17:57.062Z,99
2024-04-18T11:19:04.190Z,99
2024-04-18T11:20:10.632Z,99
2024-04-18T11:21:17.791Z,99
2024-04-18T11:23:39.338Z,99
2024-04-18T11:24:39.152Z,99
2024-04-18T11:25:46.298Z,99
2024-04-18T11:26:52.800Z,99
2024-04-18T11:27:59.878Z,99
2024-04-18T11:29:07.057Z,99
2024-04-18T11:30:14.111Z,99
2024-04-18T11:31:20.843Z,99
2024-04-18T11:32:30.768Z,99
2024-04-18T11:33:35.018Z,99
2024-04-18T11:34:42.020Z,99
2024-04-18T11:35:49.105Z,99
2024-04-18T11:36:55.714Z,99
2024-04-18T11:38:02.785Z,99
2024-04-18T11:39:10.016Z,99
2024-04-18T11:40:17.106Z,99
2024-04-18T11:41:24.152Z,99
2024-04-18T11:42:30.734Z,99
2024-04-18T11:43:37.844Z,99
2024-04-18T11:44:44.863Z,99
2024-04-18T11:45:52.034Z,99
2024-04-18T11:46:59.162Z,99
2024-04-18T11:48:06.015Z,99
2024-04-18T11:49:12.930Z,99
2024-04-18T11:50:19.968Z,99
2024-04-18T11:51:27.116Z,99
2024-04-18T11:52:34.147Z,99
2024-04-18T11:53:40.695Z,99
2024-04-18T11:54:47.885Z,99
2024-04-18T11:55:56.293Z,99
2024-04-18T11:57:02.036Z,99
2024-04-18T11:58:09.179Z,99
2024-04-18T11:59:16.383Z,99
2024-04-18T12:00:22.968Z,99
2024-04-18T12:01:29.942Z,99
2024-04-18T12:02:37.030Z,99
2024-04-18T12:03:44.404Z,99
2024-04-18T12:04:50.822Z,99
2024-04-18T12:05:57.895Z,99
2024-04-18T12:07:04.974Z,99
2024-04-18T12:08:12.046Z,99
2024-04-18T12:09:19.289Z,99
2024-04-18T12:11:32.912Z,99
2024-04-18T12:12:39.949Z,99
2024-04-18T12:13:47.108Z,99
2024-04-18T12:14:54.260Z,99
2024-04-18T12:16:00.936Z,99
2024-04-18T12:17:07.912Z,99
2024-04-18T12:18:14.947Z,99
2024-04-18T12:19:22.083Z,99
2024-04-18T12:20:29.228Z,99
2024-04-18T12:21:35.891Z,99
2024-04-18T12:22:42.904Z,99
2024-04-18T12:23:49.974Z,99
2024-04-18T12:24:57.103Z,99
2024-04-18T12:26:04.260Z,99
2024-04-18T12:27:10.810Z,99
2024-04-18T12:28:17.907Z,99
2024-04-18T12:29:25.552Z,99
2024-04-18T12:30:32.248Z,99
2024-04-18T12:31:38.659Z,99
2024-04-18T12:32:45.869Z,99
2024-04-18T12:33:52.961Z,99
2024-04-18T12:35:00.008Z,99
2024-04-18T12:36:07.145Z,99
2024-04-18T12:37:14.201Z,99
2024-04-18T12:38:20.776Z,99
2024-04-18T12:39:28.017Z,99
2024-04-18T12:40:34.974Z,99
2024-04-18T12:41:42.190Z,99
2024-04-18T12:42:48.681Z,99
2024-04-18T12:43:55.795Z,99
2024-04-18T12:45:02.986Z,99
2024-04-18T12:46:15.327Z,99
2024-04-18T12:47:17.088Z,99
2024-04-18T12:48:23.826Z,99
2024-04-18T12:49:30.944Z,99
2024-04-18T12:50:37.928Z,99
2024-04-18T12:51:45.225Z,99
2024-04-18T12:52:52.132Z,99
2024-04-18T12:53:58.745Z,99
2024-04-18T12:55:05.826Z,99
2024-04-18T12:56:12.919Z,99
2024-04-18T12:57:20.112Z,99
2024-04-18T12:58:27.153Z,99
2024-04-18T12:59:33.693Z,99
2024-04-18T13:00:40.858Z,99
2024-04-18T13:01:47.949Z,99
2024-04-18T13:02:55.175Z,99
2024-04-18T13:04:02.353Z,99
2024-04-18T13:05:08.750Z,99
2024-04-18T13:06:15.912Z,99
2024-04-18T13:07:22.930Z,99
2024-04-18T13:08:30.030Z,99
2024-04-18T13:09:37.266Z,99
2024-04-18T13:10:43.716Z,99
2024-04-18T13:11:50.827Z,99
2024-04-18T13:12:58.022Z,99
2024-04-18T13:15:12.105Z,99
2024-04-18T13:16:18.787Z,99
2024-04-18T13:17:25.787Z,99
2024-04-18T13:18:33.122Z,99
2024-04-18T13:19:40.040Z,99
2024-04-18T13:20:47.145Z,99
2024-04-18T13:21:55.543Z,99
2024-04-18T13:23:00.862Z,99
2024-04-18T13:24:08.023Z,99
2024-04-18T13:25:15.129Z,99
2024-04-18T13:26:22.181Z,99
2024-04-18T13:27:29.418Z,99
2024-04-18T13:28:35.868Z,99
2024-04-18T13:29:42.950Z,99
2024-04-18T13:30:50.188Z,99
2024-04-18T13:31:57.219Z,99
2024-04-18T13:33:04.450Z,99
2024-04-18T13:34:10.907Z,99
2024-04-18T13:35:17.978Z,99
2024-04-18T13:36:25.067Z,99
2024-04-18T13:37:32.318Z,99
2024-04-18T13:38:38.814Z,99
2024-04-18T13:39:46.938Z,99
2024-04-18T13:40:52.994Z,99
2024-04-18T13:42:00.101Z,99
2024-04-18T13:43:07.179Z,99
2024-04-18T13:44:13.844Z,99
2024-04-18T13:45:20.869Z,99
2024-04-18T13:46:27.956Z,99
2024-04-18T13:47:35.138Z,99
2024-04-18T13:48:42.261Z,99
2024-04-18T13:49:48.764Z,99
2024-04-18T13:50:56.160Z,99
2024-04-18T13:52:03.001Z,99
2024-04-18T13:53:10.125Z,99
2024-04-18T13:54:17.225Z,99
2024-04-18T13:55:23.780Z,99
2024-04-18T13:56:30.877Z,99
2024-04-18T13:57:38.091Z,99
2024-04-18T13:58:45.088Z,99
2024-04-18T13:59:52.167Z,99
2024-04-18T14:00:59.071Z,99
2024-04-18T14:02:05.905Z,99
2024-04-18T14:03:13.879Z,99
2024-04-18T14:04:20.170Z,99
2024-04-18T14:05:26.720Z,99
2024-04-18T14:06:33.840Z,99
2024-04-18T14:07:40.862Z,99
2024-04-18T14:08:48.002Z,99
2024-04-18T14:09:55.131Z,99
2024-04-18T14:11:01.769Z,99
2024-04-18T14:12:08.825Z,99
2024-04-18T14:13:15.912Z,99
2024-04-18T14:14:24.111Z,99
2024-04-18T14:15:30.162Z,99
2024-04-18T14:16:36.799Z,99
2024-04-18T14:17:43.865Z,99
2024-04-18T14:18:50.973Z,99
2024-04-18T14:19:59.818Z,99
2024-04-18T14:21:05.141Z,99
2024-04-18T14:22:11.726Z,99
2024-04-18T14:23:18.839Z,99
2024-04-18T14:24:25.941Z,99
2024-04-18T14:25:33.015Z,99
2024-04-18T14:26:40.143Z,99
2024-04-18T14:27:46.806Z,99
2024-04-18T14:28:53.871Z,99
2024-04-18T14:30:00.941Z,99
2024-04-18T14:31:08.018Z,99
2024-04-18T14:32:15.283Z,99
2024-04-18T14:33:21.925Z,99
2024-04-18T14:34:28.825Z,99
2024-04-18T14:35:35.929Z,99
2024-04-18T14:36:43.099Z,99
2024-04-18T14:37:50.172Z,99
2024-04-18T14:38:56.779Z,99
2024-04-18T14:40:03.855Z,99
2024-04-18T14:41:12.553Z,99
2024-04-18T14:42:18.153Z,99
2024-04-18T14:43:25.132Z,99
2024-04-18T14:44:32.250Z,99
2024-04-18T14:45:38.941Z,99
2024-04-18T14:46:45.952Z,99
2024-04-18T14:47:53.098Z,99
2024-04-18T14:49:00.154Z,99
2024-04-18T14:50:06.798Z,99
2024-04-18T14:51:14.151Z,99
2024-04-18T14:52:20.980Z,99
2024-04-18T14:53:28.229Z,99
2024-04-18T14:54:35.267Z,99
2024-04-18T14:55:42.302Z,99
2024-04-18T14:56:48.812Z,99
2024-04-18T14:57:56.066Z,99
2024-04-18T14:59:03.076Z,99
2024-04-18T15:00:10.209Z,99
2024-04-18T15:01:16.816Z,99
2024-04-18T15:02:23.966Z,99
2024-04-18T15:03:31.029Z,99
2024-04-18T15:04:38.276Z,99
2024-04-18T15:05:45.177Z,99
2024-04-18T15:06:51.776Z,99
2024-04-18T15:07:58.829Z,99
2024-04-18T15:09:06.053Z,99
2024-04-18T15:10:13.094Z,99
2024-04-18T15:11:20.276Z,99
2024-04-18T15:12:26.843Z,99
2024-04-18T15:13:33.862Z,99
2024-04-18T15:14:40.962Z,99
2024-04-18T15:15:48.228Z,99
2024-04-18T15:16:55.216Z,99
2024-04-18T15:18:01.942Z,99
2024-04-18T15:19:09.145Z,99
2024-04-18T15:20:16.022Z,99
2024-04-18T15:21:23.148Z,99
2024-04-18T15:22:30.728Z,99
2024-04-18T15:23:36.804Z,99
2024-04-18T15:24:43.993Z,99
2024-04-18T15:25:51.011Z,99
2024-04-18T15:26:58.145Z,99
2024-04-18T15:28:05.235Z,99
2024-04-18T15:29:11.922Z,99
2024-04-18T15:30:19.007Z,99
2024-04-18T15:31:26.100Z,99
2024-04-18T15:32:33.160Z,99
2024-04-18T15:33:40.322Z,99
2024-04-18T15:34:46.938Z,99
2024-04-18T15:35:53.947Z,99
2024-04-18T15:37:00.969Z,99
2024-04-18T15:38:08.166Z,99
2024-04-18T15:39:14.696Z,99
2024-04-18T15:41:28.950Z,99
2024-04-18T15:42:36.121Z,99
2024-04-18T15:43:43.138Z,99
2024-04-18T15:44:49.668Z,99
2024-04-18T15:45:58.057Z,99
2024-04-18T15:47:03.990Z,99
2024-04-18T15:48:11.242Z,99
2024-04-18T15:49:18.192Z,99
2024-04-18T15:50:25.210Z,99
2024-04-18T15:51:31.898Z,99
2024-04-18T15:52:38.934Z,99
2024-04-18T15:53:46.136Z,99
2024-04-18T15:55:04.634Z,99
2024-04-18T15:56:00.290Z,99
2024-04-18T15:57:06.853Z,99
2024-04-18T15:58:13.949Z,99
2024-04-18T16:00:28.212Z,99
2024-04-18T16:01:34.759Z,99
2024-04-18T16:02:41.963Z,99
2024-04-18T16:03:49.024Z,99
2024-04-18T16:04:56.150Z,99
2024-04-18T16:06:03.149Z,99
2024-04-18T16:07:09.931Z,99
2024-04-18T16:08:16.831Z,99
2024-04-18T16:09:23.987Z,99
2024-04-18T16:10:31.015Z,99
2024-04-18T16:11:38.251Z,99
2024-04-18T16:12:44.926Z,99
2024-04-18T16:13:51.877Z,99
2024-04-18T16:14:58.994Z,99
2024-04-18T16:16:06.102Z,99
2024-04-18T16:17:13.165Z,99
2024-04-18T16:18:19.890Z,99
2024-04-18T16:19:28.714Z,99
2024-04-18T16:20:33.949Z,99
2024-04-18T16:21:41.139Z,99